createdAt,value
2018-09-24T00:00:27.485Z,986.87
2018-09-24T00:01:27.483Z,986.87
2018-09-24T00:02:27.368Z,986.94
2018-09-24T00:03:27.335Z,986.96
2018-09-24T00:04:27.317Z,987.02
2018-09-24T00:05:27.266Z,987.07
2018-09-24T00:06:27.213Z,987.12
2018-09-24T00:07:27.167Z,987.17
2018-09-24T00:08:27.132Z,987.21
2018-09-24T00:09:27.072Z,987.32
2018-09-24T00:10:27.051Z,987.31
2018-09-24T00:11:27.036Z,987.30
2018-09-24T00:12:26.952Z,987.32
2018-09-24T00:13:26.927Z,987.38
2018-09-24T00:14:26.893Z,987.43
2018-09-24T00:15:26.871Z,987.46
2018-09-24T00:16:26.796Z,987.50
2018-09-24T00:17:26.764Z,987.48
2018-09-24T00:18:26.707Z,987.49
2018-09-24T00:19:26.674Z,987.51
2018-09-24T00:20:26.618Z,987.58
2018-09-24T00:21:26.616Z,987.61
2018-09-24T00:22:26.565Z,987.61
2018-09-24T00:23:26.535Z,987.65
2018-09-24T00:24:26.452Z,987.67
2018-09-24T00:25:26.417Z,987.72
2018-09-24T00:26:26.376Z,987.74
2018-09-24T00:27:26.392Z,987.86
2018-09-24T00:28:26.288Z,987.79
2018-09-24T00:29:26.295Z,987.77
2018-09-24T00:30:27.061Z,987.87
2018-09-24T00:31:26.166Z,987.85
2018-09-24T00:32:26.138Z,987.84
2018-09-24T00:33:26.142Z,987.89
2018-09-24T00:34:26.091Z,987.88
2018-09-24T00:35:26.007Z,987.93
2018-09-24T00:36:25.964Z,987.93
2018-09-24T00:37:25.957Z,987.99
2018-09-24T00:38:25.896Z,988.01
2018-09-24T00:39:25.882Z,988.02
2018-09-24T00:40:25.812Z,987.99
2018-09-24T00:41:25.778Z,988.00
2018-09-24T00:42:25.732Z,988.07
2018-09-24T00:43:25.672Z,988.02
2018-09-24T00:44:25.640Z,988.06
2018-09-24T00:45:25.617Z,988.09
2018-09-24T00:46:25.546Z,988.06
2018-09-24T00:47:25.541Z,988.11
2018-09-24T00:48:25.524Z,988.05
2018-09-24T00:49:25.454Z,988.09
2018-09-24T00:50:25.415Z,988.10
2018-09-24T00:51:25.361Z,988.11
2018-09-24T00:52:25.346Z,988.14
2018-09-24T00:53:25.306Z,988.13
2018-09-24T00:54:25.239Z,988.20
2018-09-24T00:55:26.056Z,988.22
2018-09-24T00:56:25.160Z,988.20
2018-09-24T00:57:25.098Z,988.18
2018-09-24T00:58:25.150Z,988.26
2018-09-24T00:59:25.032Z,988.26
2018-09-24T01:00:24.980Z,988.28
2018-09-24T01:01:24.971Z,988.28
2018-09-24T01:02:24.911Z,988.27
2018-09-24T01:03:24.869Z,988.32
2018-09-24T01:04:24.814Z,988.31
2018-09-24T01:05:24.792Z,988.35
2018-09-24T01:06:24.788Z,988.33
2018-09-24T01:07:24.714Z,988.31
2018-09-24T01:08:24.728Z,988.37
2018-09-24T01:09:24.619Z,988.38
2018-09-24T01:10:24.567Z,988.45
2018-09-24T01:11:24.561Z,988.41
2018-09-24T01:12:24.489Z,988.43
2018-09-24T01:13:48.084Z,988.45
2018-09-24T01:14:24.396Z,988.47
2018-09-24T01:15:24.391Z,988.51
2018-09-24T01:16:24.319Z,988.47
2018-09-24T01:17:24.281Z,988.57
2018-09-24T01:18:24.233Z,988.55
2018-09-24T01:19:24.195Z,988.54
2018-09-24T01:20:24.182Z,988.54
2018-09-24T01:21:24.116Z,988.61
2018-09-24T01:22:24.085Z,988.64
2018-09-24T01:23:45.033Z,988.69
2018-09-24T01:24:24.000Z,988.69
2018-09-24T01:25:23.951Z,988.73
2018-09-24T01:26:23.958Z,988.72
2018-09-24T01:27:23.866Z,988.77
2018-09-24T01:28:23.862Z,988.77
2018-09-24T01:29:23.792Z,988.80
2018-09-24T01:30:24.574Z,988.78
2018-09-24T01:31:23.706Z,988.86
2018-09-24T01:32:23.670Z,988.91
2018-09-24T01:33:23.620Z,988.89
2018-09-24T01:34:23.588Z,988.88
2018-09-24T01:35:23.548Z,988.95
2018-09-24T01:36:23.520Z,988.91
2018-09-24T01:37:23.471Z,988.95
2018-09-24T01:38:23.439Z,988.94
2018-09-24T01:39:23.429Z,988.95
2018-09-24T01:40:23.340Z,988.92
2018-09-24T01:41:23.321Z,989.01
2018-09-24T01:42:23.262Z,988.94
2018-09-24T01:43:23.245Z,988.98
2018-09-24T01:44:24.075Z,989.01
2018-09-24T01:45:23.137Z,988.96
2018-09-24T01:46:23.138Z,989.05
2018-09-24T01:47:23.080Z,989.07
2018-09-24T01:48:23.025Z,989.07
2018-09-24T01:49:23.007Z,989.10
2018-09-24T01:50:22.964Z,989.09
2018-09-24T01:51:22.896Z,989.08
2018-09-24T01:52:22.861Z,989.10
2018-09-24T01:53:22.810Z,989.15
2018-09-24T01:54:22.770Z,989.20
2018-09-24T01:55:22.745Z,989.23
2018-09-24T01:56:22.740Z,989.18
2018-09-24T01:57:22.651Z,989.18
2018-09-24T01:58:22.609Z,989.23
2018-09-24T01:59:23.088Z,989.22
2018-09-24T02:00:22.532Z,989.27
2018-09-24T02:01:22.491Z,989.27
2018-09-24T02:02:22.458Z,989.26
2018-09-24T02:03:22.424Z,989.35
2018-09-24T02:04:22.364Z,989.39
2018-09-24T02:05:22.352Z,989.37
2018-09-24T02:06:22.281Z,989.34
2018-09-24T02:07:22.244Z,989.40
2018-09-24T02:08:22.212Z,989.37
2018-09-24T02:09:22.172Z,989.44
2018-09-24T02:10:22.132Z,989.47
2018-09-24T02:11:22.076Z,989.39
2018-09-24T02:12:22.037Z,989.45
2018-09-24T02:13:21.999Z,989.49
2018-09-24T02:14:21.945Z,989.47
2018-09-24T02:15:21.909Z,989.43
2018-09-24T02:16:21.888Z,989.47
2018-09-24T02:17:21.953Z,989.44
2018-09-24T02:18:21.808Z,989.48
2018-09-24T02:19:21.769Z,989.46
2018-09-24T02:20:22.507Z,989.40
2018-09-24T02:21:21.688Z,989.46
2018-09-24T02:22:22.576Z,989.48
2018-09-24T02:23:22.490Z,989.48
2018-09-24T02:24:21.591Z,989.49
2018-09-24T02:25:21.523Z,989.50
2018-09-24T02:26:21.467Z,989.55
2018-09-24T02:27:21.434Z,989.51
2018-09-24T02:28:21.379Z,989.53
2018-09-24T02:29:21.350Z,989.51
2018-09-24T02:30:21.305Z,989.59
2018-09-24T02:31:21.287Z,989.54
2018-09-24T02:32:21.226Z,989.64
2018-09-24T02:33:21.196Z,989.65
2018-09-24T02:34:21.135Z,989.63
2018-09-24T02:35:21.112Z,989.64
2018-09-24T02:36:21.051Z,989.60
2018-09-24T02:37:21.594Z,989.62
2018-09-24T02:38:20.989Z,989.66
2018-09-24T02:39:21.496Z,989.62
2018-09-24T02:40:20.898Z,989.62
2018-09-24T02:41:20.851Z,989.67
2018-09-24T02:42:20.803Z,989.69
2018-09-24T02:43:20.767Z,989.72
2018-09-24T02:44:20.737Z,989.76
2018-09-24T02:45:20.689Z,989.77
2018-09-24T02:46:20.668Z,989.75
2018-09-24T02:47:21.506Z,989.83
2018-09-24T02:48:20.636Z,989.80
2018-09-24T02:49:20.533Z,989.82
2018-09-24T02:50:20.503Z,989.88
2018-09-24T02:51:20.469Z,989.91
2018-09-24T02:52:20.416Z,989.92
2018-09-24T02:53:20.363Z,989.95
2018-09-24T02:54:20.319Z,989.98
2018-09-24T02:55:20.280Z,989.98
2018-09-24T02:56:20.240Z,989.99
2018-09-24T02:57:20.219Z,990.05
2018-09-24T02:58:20.180Z,990.07
2018-09-24T02:59:20.130Z,990.11
2018-09-24T03:00:20.602Z,990.17
2018-09-24T03:01:20.092Z,990.16
2018-09-24T03:02:20.508Z,990.19
2018-09-24T03:03:19.967Z,990.19
2018-09-24T03:04:19.909Z,990.22
2018-09-24T03:05:19.872Z,990.19
2018-09-24T03:06:19.844Z,990.23
2018-09-24T03:07:19.789Z,990.25
2018-09-24T03:08:19.740Z,990.31
2018-09-24T03:09:19.708Z,990.30
2018-09-24T03:10:19.676Z,990.32
2018-09-24T03:11:19.617Z,990.36
2018-09-24T03:12:19.626Z,990.42
2018-09-24T03:13:19.536Z,990.46
2018-09-24T03:14:19.513Z,990.48
2018-09-24T03:15:19.473Z,990.47
2018-09-24T03:16:19.452Z,990.48
2018-09-24T03:17:19.443Z,990.44
2018-09-24T03:18:19.349Z,990.47
2018-09-24T03:19:19.327Z,990.48
2018-09-24T03:20:19.268Z,990.50
2018-09-24T03:21:20.097Z,990.52
2018-09-24T03:22:19.204Z,990.51
2018-09-24T03:23:19.162Z,990.59
2018-09-24T03:24:19.113Z,990.53
2018-09-24T03:25:19.602Z,990.60
2018-09-24T03:26:19.091Z,990.60
2018-09-24T03:27:19.012Z,990.63
2018-09-24T03:28:19.022Z,990.67
2018-09-24T03:29:18.979Z,990.63
2018-09-24T03:30:18.849Z,990.62
2018-09-24T03:31:18.808Z,990.60
2018-09-24T03:32:18.785Z,990.58
2018-09-24T03:33:18.783Z,990.67
2018-09-24T03:34:18.730Z,990.64
2018-09-24T03:35:18.658Z,990.61
2018-09-24T03:36:18.619Z,990.65
2018-09-24T03:37:18.549Z,990.61
2018-09-24T03:38:18.529Z,990.63
2018-09-24T03:39:19.011Z,990.61
2018-09-24T03:40:19.007Z,990.67
2018-09-24T03:41:18.397Z,990.68
2018-09-24T03:42:18.366Z,990.71
2018-09-24T03:43:18.308Z,990.70
2018-09-24T03:44:18.279Z,990.76
2018-09-24T03:45:18.226Z,990.77
2018-09-24T03:46:18.211Z,990.77
2018-09-24T03:47:18.145Z,990.79
2018-09-24T03:48:18.117Z,990.74
2018-09-24T03:49:18.087Z,990.72
2018-09-24T03:50:19.019Z,990.74
2018-09-24T03:51:18.610Z,990.70
2018-09-24T03:52:17.940Z,990.77
2018-09-24T03:53:17.913Z,990.77
2018-09-24T03:54:17.865Z,990.75
2018-09-24T03:55:17.818Z,990.79
2018-09-24T03:56:18.518Z,990.81
2018-09-24T03:57:17.751Z,990.84
2018-09-24T03:58:17.694Z,990.80
2018-09-24T03:59:20.617Z,990.83
2018-09-24T04:00:17.639Z,990.84
2018-09-24T04:01:17.659Z,990.85
2018-09-24T04:02:17.528Z,990.91
2018-09-24T04:03:17.506Z,990.90
2018-09-24T04:04:17.484Z,990.92
2018-09-24T04:05:17.437Z,990.89
2018-09-24T04:06:17.379Z,990.89
2018-09-24T04:07:17.338Z,990.89
2018-09-24T04:08:17.298Z,990.99
2018-09-24T04:09:17.295Z,990.96
2018-09-24T04:10:17.238Z,990.96
2018-09-24T04:11:17.167Z,990.93
2018-09-24T04:12:17.159Z,990.96
2018-09-24T04:13:17.125Z,991.01
2018-09-24T04:14:17.130Z,991.04
2018-09-24T04:15:17.023Z,991.10
2018-09-24T04:16:16.995Z,991.08
2018-09-24T04:17:17.523Z,991.13
2018-09-24T04:18:16.898Z,991.13
2018-09-24T04:19:16.850Z,991.11
2018-09-24T04:20:16.807Z,991.19
2018-09-24T04:21:16.791Z,991.13
2018-09-24T04:22:16.720Z,991.16
2018-09-24T04:23:16.715Z,991.26
2018-09-24T04:24:17.624Z,991.21
2018-09-24T04:25:16.625Z,991.23
2018-09-24T04:26:16.663Z,991.29
2018-09-24T04:27:16.530Z,991.33
2018-09-24T04:28:16.495Z,991.27
2018-09-24T04:29:16.472Z,991.26
2018-09-24T04:30:16.395Z,991.28
2018-09-24T04:31:16.357Z,991.30
2018-09-24T04:32:17.042Z,991.35
2018-09-24T04:33:16.271Z,991.33
2018-09-24T04:34:16.245Z,991.31
2018-09-24T04:35:17.517Z,991.38
2018-09-24T04:36:16.156Z,991.40
2018-09-24T04:37:16.100Z,991.42
2018-09-24T04:38:16.064Z,991.50
2018-09-24T04:39:16.033Z,991.44
2018-09-24T04:40:16.028Z,991.46
2018-09-24T04:41:15.943Z,991.42
2018-09-24T04:42:15.909Z,991.48
2018-09-24T04:43:15.893Z,991.43
2018-09-24T04:44:15.814Z,991.45
2018-09-24T04:45:15.792Z,991.43
2018-09-24T04:46:15.753Z,991.46
2018-09-24T04:47:15.714Z,991.53
2018-09-24T04:48:15.698Z,991.54
2018-09-24T04:49:15.639Z,991.53
2018-09-24T04:50:15.604Z,991.56
2018-09-24T04:51:15.543Z,991.54
2018-09-24T04:52:15.490Z,991.59
2018-09-24T04:53:15.495Z,991.57
2018-09-24T04:54:15.447Z,991.59
2018-09-24T04:55:15.400Z,991.60
2018-09-24T04:56:15.336Z,991.63
2018-09-24T04:57:15.302Z,991.63
2018-09-24T04:58:15.270Z,991.66
2018-09-24T04:59:15.219Z,991.70
2018-09-24T05:00:15.203Z,991.69
2018-09-24T05:01:15.142Z,991.68
2018-09-24T05:02:15.096Z,991.73
2018-09-24T05:03:15.045Z,991.73
2018-09-24T05:04:15.008Z,991.74
2018-09-24T05:05:14.971Z,991.73
2018-09-24T05:06:14.924Z,991.74
2018-09-24T05:07:15.527Z,991.71
2018-09-24T05:08:14.849Z,991.78
2018-09-24T05:09:14.829Z,991.78
2018-09-24T05:10:14.792Z,991.80
2018-09-24T05:11:14.725Z,991.83
2018-09-24T05:12:14.675Z,991.85
2018-09-24T05:13:14.645Z,991.82
2018-09-24T05:14:14.620Z,991.82
2018-09-24T05:15:14.557Z,991.85
2018-09-24T05:16:14.562Z,991.82
2018-09-24T05:17:14.497Z,991.84
2018-09-24T05:18:14.430Z,991.82
2018-09-24T05:19:14.412Z,991.85
2018-09-24T05:20:14.453Z,991.79
2018-09-24T05:21:15.135Z,991.82
2018-09-24T05:22:14.298Z,991.84
2018-09-24T05:23:14.268Z,991.87
2018-09-24T05:24:14.214Z,991.90
2018-09-24T05:25:14.153Z,991.92
2018-09-24T05:26:14.113Z,991.91
2018-09-24T05:27:14.075Z,991.94
2018-09-24T05:28:14.033Z,991.94
2018-09-24T05:29:14.631Z,991.94
2018-09-24T05:30:13.971Z,991.99
2018-09-24T05:31:13.903Z,992.00
2018-09-24T05:32:13.904Z,992.02
2018-09-24T05:33:13.825Z,992.13
2018-09-24T05:34:14.538Z,992.13
2018-09-24T05:35:13.764Z,992.11
2018-09-24T05:36:14.569Z,992.11
2018-09-24T05:37:13.685Z,992.14
2018-09-24T05:38:13.649Z,992.14
2018-09-24T05:39:13.607Z,992.17
2018-09-24T05:40:13.577Z,992.17
2018-09-24T05:41:13.576Z,992.20
2018-09-24T05:42:13.525Z,992.24
2018-09-24T05:43:13.416Z,992.21
2018-09-24T05:44:13.380Z,992.21
2018-09-24T05:45:13.360Z,992.24
2018-09-24T05:46:14.126Z,992.19
2018-09-24T05:47:13.271Z,992.28
2018-09-24T05:48:13.242Z,992.30
2018-09-24T05:49:13.191Z,992.31
2018-09-24T05:50:13.131Z,992.35
2018-09-24T05:51:13.112Z,992.31
2018-09-24T05:52:13.063Z,992.41
2018-09-24T05:53:13.020Z,992.35
2018-09-24T05:54:13.127Z,992.34
2018-09-24T05:55:12.945Z,992.34
2018-09-24T05:56:12.899Z,992.31
2018-09-24T05:57:12.848Z,992.34
2018-09-24T05:58:12.837Z,992.40
2018-09-24T05:59:12.784Z,992.40
2018-09-24T06:00:12.768Z,992.43
2018-09-24T06:01:12.708Z,992.40
2018-09-24T06:02:12.657Z,992.45
2018-09-24T06:03:12.627Z,992.38
2018-09-24T06:04:12.575Z,992.45
2018-09-24T06:05:12.549Z,992.50
2018-09-24T06:06:12.497Z,992.50
2018-09-24T06:07:12.467Z,992.50
2018-09-24T06:08:12.406Z,992.46
2018-09-24T06:09:12.412Z,992.55
2018-09-24T06:10:12.353Z,992.49
2018-09-24T06:11:12.297Z,992.50
2018-09-24T06:12:12.264Z,992.50
2018-09-24T06:13:12.215Z,992.57
2018-09-24T06:14:12.222Z,992.60
2018-09-24T06:15:12.152Z,992.64
2018-09-24T06:16:13.046Z,992.67
2018-09-24T06:17:12.072Z,992.71
2018-09-24T06:18:12.015Z,992.71
2018-09-24T06:19:12.019Z,992.74
2018-09-24T06:20:11.945Z,992.74
2018-09-24T06:21:11.882Z,992.79
2018-09-24T06:22:11.878Z,992.77
2018-09-24T06:23:11.808Z,992.72
2018-09-24T06:24:11.809Z,992.73
2018-09-24T06:25:11.778Z,992.78
2018-09-24T06:26:12.661Z,992.79
2018-09-24T06:27:11.674Z,992.90
2018-09-24T06:28:11.616Z,992.86
2018-09-24T06:29:11.567Z,992.91
2018-09-24T06:30:11.541Z,992.90
2018-09-24T06:31:11.502Z,992.91
2018-09-24T06:32:11.441Z,992.84
2018-09-24T06:33:11.394Z,992.93
2018-09-24T06:34:11.433Z,992.98
2018-09-24T06:35:11.451Z,993.03
2018-09-24T06:36:11.341Z,993.07
2018-09-24T06:37:11.362Z,993.07
2018-09-24T06:38:11.251Z,993.07
2018-09-24T06:39:11.176Z,993.14
2018-09-24T06:40:11.131Z,993.13
2018-09-24T06:41:11.102Z,993.15
2018-09-24T06:42:11.650Z,993.12
2018-09-24T06:43:11.024Z,993.16
2018-09-24T06:44:11.572Z,993.15
2018-09-24T06:45:10.943Z,993.23
2018-09-24T06:46:10.896Z,993.21
2018-09-24T06:47:10.844Z,993.29
2018-09-24T06:48:10.833Z,993.32
2018-09-24T06:49:10.827Z,993.40
2018-09-24T06:50:10.760Z,993.36
2018-09-24T06:51:10.698Z,993.35
2018-09-24T06:52:10.646Z,993.34
2018-09-24T06:53:10.603Z,993.34
2018-09-24T06:54:10.587Z,993.38
2018-09-24T06:55:10.560Z,993.34
2018-09-24T06:56:10.499Z,993.42
2018-09-24T06:57:10.456Z,993.49
2018-09-24T06:58:10.406Z,993.43
2018-09-24T06:59:10.425Z,993.49
2018-09-24T07:00:10.343Z,993.54
2018-09-24T07:01:10.311Z,993.55
2018-09-24T07:02:10.279Z,993.51
2018-09-24T07:03:10.222Z,993.51
2018-09-24T07:04:10.183Z,993.60
2018-09-24T07:05:10.168Z,993.56
2018-09-24T07:06:10.101Z,993.67
2018-09-24T07:07:10.060Z,993.61
2018-09-24T07:08:10.697Z,993.75
2018-09-24T07:09:10.557Z,993.73
2018-09-24T07:10:09.980Z,993.73
2018-09-24T07:11:09.909Z,993.83
2018-09-24T07:12:12.640Z,993.79
2018-09-24T07:13:09.835Z,993.84
2018-09-24T07:14:09.795Z,993.83
2018-09-24T07:15:09.729Z,993.90
2018-09-24T07:16:09.809Z,993.85
2018-09-24T07:17:09.685Z,993.92
2018-09-24T07:18:09.636Z,993.91
2018-09-24T07:19:09.600Z,993.96
2018-09-24T07:20:09.567Z,993.98
2018-09-24T07:21:09.505Z,993.94
2018-09-24T07:22:09.456Z,994.04
2018-09-24T07:23:09.435Z,993.97
2018-09-24T07:24:09.383Z,993.96
2018-09-24T07:25:09.342Z,993.92
2018-09-24T07:26:09.291Z,993.88
2018-09-24T07:27:09.268Z,993.93
2018-09-24T07:28:09.303Z,993.92
2018-09-24T07:29:09.174Z,993.93
2018-09-24T07:30:09.649Z,993.95
2018-09-24T07:31:09.107Z,994.02
2018-09-24T07:32:09.053Z,993.99
2018-09-24T07:33:09.036Z,994.05
2018-09-24T07:34:09.003Z,994.07
2018-09-24T07:35:08.942Z,994.17
2018-09-24T07:36:08.914Z,994.23
2018-09-24T07:37:08.872Z,994.10
2018-09-24T07:38:08.862Z,994.26
2018-09-24T07:39:08.801Z,994.18
2018-09-24T07:40:08.760Z,994.16
2018-09-24T07:41:08.745Z,994.24
2018-09-24T07:42:08.693Z,994.22
2018-09-24T07:43:08.681Z,994.28
2018-09-24T07:44:08.595Z,994.25
2018-09-24T07:45:08.569Z,994.32
2018-09-24T07:46:08.537Z,994.28
2018-09-24T07:47:08.484Z,994.30
2018-09-24T07:48:08.459Z,994.37
2018-09-24T07:49:08.407Z,994.44
2018-09-24T07:50:08.376Z,994.43
2018-09-24T07:51:08.333Z,994.44
2018-09-24T07:52:08.287Z,994.46
2018-09-24T07:53:08.251Z,994.42
2018-09-24T07:54:08.242Z,994.48
2018-09-24T07:55:08.198Z,994.50
2018-09-24T07:56:08.150Z,994.43
2018-09-24T07:57:08.099Z,994.55
2018-09-24T07:58:08.058Z,994.56
2018-09-24T07:59:08.030Z,994.52
2018-09-24T08:00:08.000Z,994.56
2018-09-24T08:01:08.670Z,994.51
2018-09-24T08:02:07.929Z,994.58
2018-09-24T08:03:07.865Z,994.55
2018-09-24T08:04:07.842Z,994.57
2018-09-24T08:05:07.838Z,994.62
2018-09-24T08:06:07.749Z,994.51
2018-09-24T08:07:08.721Z,994.59
2018-09-24T08:08:07.722Z,994.73
2018-09-24T08:09:07.669Z,994.72
2018-09-24T08:10:07.606Z,994.67
2018-09-24T08:11:07.584Z,994.73
2018-09-24T08:12:07.535Z,994.75
2018-09-24T08:13:07.508Z,994.66
2018-09-24T08:14:08.169Z,994.77
2018-09-24T08:15:07.423Z,994.87
2018-09-24T08:16:07.373Z,994.65
2018-09-24T08:17:07.348Z,994.77
2018-09-24T08:18:07.361Z,994.77
2018-09-24T08:19:07.269Z,994.78
2018-09-24T08:20:07.225Z,994.81
2018-09-24T08:21:07.290Z,994.78
2018-09-24T08:22:07.151Z,994.77
2018-09-24T08:23:07.119Z,994.78
2018-09-24T08:24:07.070Z,994.80
2018-09-24T08:25:07.027Z,994.83
2018-09-24T08:26:07.026Z,994.79
2018-09-24T08:27:06.956Z,994.83
2018-09-24T08:28:06.947Z,994.95
2018-09-24T08:29:06.900Z,994.93
2018-09-24T08:30:06.853Z,994.90
2018-09-24T08:31:06.807Z,994.93
2018-09-24T08:32:06.767Z,994.99
2018-09-24T08:33:06.769Z,994.96
2018-09-24T08:34:06.716Z,994.98
2018-09-24T08:35:06.772Z,994.98
2018-09-24T08:36:06.674Z,994.94
2018-09-24T08:37:06.595Z,994.99
2018-09-24T08:38:06.612Z,995.06
2018-09-24T08:39:07.091Z,994.99
2018-09-24T08:40:06.490Z,995.03
2018-09-24T08:41:06.457Z,995.11
2018-09-24T08:42:06.422Z,995.04
2018-09-24T08:43:06.363Z,995.07
2018-09-24T08:44:06.361Z,995.22
2018-09-24T08:45:07.079Z,995.13
2018-09-24T08:46:06.261Z,995.14
2018-09-24T08:47:06.213Z,995.08
2018-09-24T08:48:07.206Z,995.10
2018-09-24T08:49:06.147Z,995.14
2018-09-24T08:50:06.109Z,995.15
2018-09-24T08:51:06.076Z,995.15
2018-09-24T08:52:06.058Z,995.15
2018-09-24T08:53:06.011Z,995.15
2018-09-24T08:54:05.972Z,995.21
2018-09-24T08:55:06.592Z,995.16
2018-09-24T08:56:05.906Z,995.23
2018-09-24T08:57:05.888Z,995.23
2018-09-24T08:58:05.817Z,995.27
2018-09-24T08:59:05.774Z,995.24
2018-09-24T09:00:06.588Z,995.17
2018-09-24T09:01:05.702Z,995.27
2018-09-24T09:02:05.661Z,995.32
2018-09-24T09:03:05.640Z,995.35
2018-09-24T09:04:06.177Z,995.24
2018-09-24T09:05:05.544Z,995.28
2018-09-24T09:06:05.533Z,995.32
2018-09-24T09:07:05.479Z,995.39
2018-09-24T09:08:05.444Z,995.38
2018-09-24T09:09:05.417Z,995.30
2018-09-24T09:10:05.413Z,995.34
2018-09-24T09:11:05.350Z,995.39
2018-09-24T09:12:05.313Z,995.38
2018-09-24T09:13:05.262Z,995.38
2018-09-24T09:14:05.398Z,995.40
2018-09-24T09:15:05.206Z,995.44
2018-09-24T09:16:05.157Z,995.51
2018-09-24T09:17:05.130Z,995.56
2018-09-24T09:18:05.096Z,995.61
2018-09-24T09:19:05.062Z,995.56
2018-09-24T09:20:05.037Z,995.60
2018-09-24T09:21:04.991Z,995.70
2018-09-24T09:22:04.984Z,995.53
2018-09-24T09:23:04.926Z,995.55
2018-09-24T09:24:04.927Z,995.61
2018-09-24T09:25:04.891Z,995.62
2018-09-24T09:26:04.831Z,995.60
2018-09-24T09:27:04.781Z,995.64
2018-09-24T09:28:04.750Z,995.66
2018-09-24T09:29:04.717Z,995.55
2018-09-24T09:30:04.698Z,995.67
2018-09-24T09:31:04.672Z,995.70
2018-09-24T09:32:04.621Z,995.86
2018-09-24T09:33:04.568Z,995.79
2018-09-24T09:34:04.586Z,995.81
2018-09-24T09:35:05.148Z,995.85
2018-09-24T09:36:04.557Z,995.84
2018-09-24T09:37:04.437Z,995.78
2018-09-24T09:38:04.387Z,995.75
2018-09-24T09:39:04.374Z,995.77
2018-09-24T09:40:04.332Z,995.69
2018-09-24T09:41:04.366Z,995.82
2018-09-24T09:42:04.244Z,995.71
2018-09-24T09:43:04.313Z,995.77
2018-09-24T09:44:04.208Z,995.80
2018-09-24T09:45:04.150Z,995.86
2018-09-24T09:46:04.123Z,995.85
2018-09-24T09:47:04.094Z,995.93
2018-09-24T09:48:04.058Z,995.97
2018-09-24T09:49:04.022Z,995.92
2018-09-24T09:50:04.003Z,995.92
2018-09-24T09:51:03.963Z,995.84
2018-09-24T09:52:03.924Z,996.00
2018-09-24T09:53:03.889Z,995.92
2018-09-24T09:54:03.886Z,995.92
2018-09-24T09:55:03.856Z,995.96
2018-09-24T09:56:03.821Z,996.01
2018-09-24T09:57:03.747Z,996.02
2018-09-24T09:58:03.728Z,996.00
2018-09-24T09:59:03.721Z,995.96
2018-09-24T10:00:03.672Z,995.96
2018-09-24T10:01:03.648Z,995.97
2018-09-24T10:02:03.608Z,996.08
2018-09-24T10:03:03.545Z,996.01
2018-09-24T10:04:03.528Z,995.96
2018-09-24T10:05:03.490Z,996.11
2018-09-24T10:06:03.453Z,995.99
2018-09-24T10:07:03.421Z,996.00
2018-09-24T10:08:03.377Z,996.04
2018-09-24T10:09:03.418Z,995.90
2018-09-24T10:10:03.366Z,996.05
2018-09-24T10:11:03.294Z,995.94
2018-09-24T10:12:03.274Z,995.99
2018-09-24T10:13:03.212Z,996.01
2018-09-24T10:14:04.111Z,996.08
2018-09-24T10:15:04.116Z,996.05
2018-09-24T10:16:03.123Z,995.94
2018-09-24T10:17:03.085Z,995.90
2018-09-24T10:18:03.049Z,996.10
2018-09-24T10:19:03.029Z,995.99
2018-09-24T10:20:02.988Z,995.93
2018-09-24T10:21:02.954Z,996.05
2018-09-24T10:22:02.942Z,996.08
2018-09-24T10:23:02.878Z,996.08
2018-09-24T10:24:02.859Z,996.06
2018-09-24T10:25:02.859Z,996.04
2018-09-24T10:26:02.799Z,996.09
2018-09-24T10:27:02.754Z,996.05
2018-09-24T10:28:02.714Z,996.11
2018-09-24T10:29:02.682Z,996.19
2018-09-24T10:30:02.664Z,996.26
2018-09-24T10:31:02.649Z,995.80
2018-09-24T10:32:02.600Z,996.27
2018-09-24T10:33:02.556Z,996.19
2018-09-24T10:34:02.557Z,996.22
2018-09-24T10:35:02.496Z,996.35
2018-09-24T10:36:02.494Z,996.24
2018-09-24T10:37:02.487Z,996.19
2018-09-24T10:38:02.397Z,996.28
2018-09-24T10:39:02.371Z,996.26
2018-09-24T10:40:02.342Z,996.34
2018-09-24T10:41:02.296Z,996.29
2018-09-24T10:42:02.265Z,996.34
2018-09-24T10:43:02.234Z,996.36
2018-09-24T10:44:02.238Z,996.24
2018-09-24T10:45:02.179Z,996.25
2018-09-24T10:46:02.244Z,996.24
2018-09-24T10:47:02.105Z,996.22
2018-09-24T10:48:02.092Z,996.40
2018-09-24T10:49:02.045Z,996.25
2018-09-24T10:50:02.024Z,996.25
2018-09-24T10:51:02.020Z,996.23
2018-09-24T10:52:01.955Z,996.19
2018-09-24T10:53:01.963Z,996.28
2018-09-24T10:54:04.012Z,996.38
2018-09-24T10:55:01.868Z,996.18
2018-09-24T10:56:01.905Z,996.30
2018-09-24T10:57:01.823Z,996.29
2018-09-24T10:58:01.784Z,996.17
2018-09-24T10:59:01.736Z,996.25
2018-09-24T11:00:01.707Z,996.21
2018-09-24T11:01:01.699Z,996.25
2018-09-24T11:02:01.665Z,996.32
2018-09-24T11:03:01.613Z,996.26
2018-09-24T11:04:01.596Z,996.30
2018-09-24T11:05:01.565Z,996.39
2018-09-24T11:06:01.525Z,996.22
2018-09-24T11:07:01.528Z,996.31
2018-09-24T11:08:01.491Z,996.39
2018-09-24T11:09:01.449Z,996.39
2018-09-24T11:10:01.417Z,996.48
2018-09-24T11:11:01.403Z,996.49
2018-09-24T11:12:01.413Z,996.43
2018-09-24T11:13:01.331Z,996.36
2018-09-24T11:14:01.314Z,996.42
2018-09-24T11:15:01.259Z,996.41
2018-09-24T11:16:01.331Z,996.39
2018-09-24T11:17:01.383Z,996.49
2018-09-24T11:18:01.182Z,996.38
2018-09-24T11:19:01.153Z,996.37
2018-09-24T11:20:01.099Z,996.43
2018-09-24T11:21:01.077Z,996.50
2018-09-24T11:22:01.078Z,996.53
2018-09-24T11:23:01.057Z,996.63
2018-09-24T11:24:00.999Z,996.49
2018-09-24T11:25:00.976Z,996.50
2018-09-24T11:26:00.934Z,996.61
2018-09-24T11:27:00.904Z,996.51
2018-09-24T11:28:00.866Z,996.58
2018-09-24T11:29:00.849Z,996.78
2018-09-24T11:30:00.825Z,996.86
2018-09-24T11:31:00.792Z,996.72
2018-09-24T11:32:00.739Z,996.73
2018-09-24T11:33:00.732Z,996.71
2018-09-24T11:34:00.687Z,996.61
2018-09-24T11:35:00.655Z,996.77
2018-09-24T11:36:00.622Z,996.69
2018-09-24T11:37:00.579Z,996.64
2018-09-24T11:38:00.551Z,996.62
2018-09-24T11:39:00.513Z,996.62
2018-09-24T11:40:00.488Z,996.58
2018-09-24T11:41:00.445Z,996.56
2018-09-24T11:42:00.431Z,996.53
2018-09-24T11:43:00.397Z,996.53
2018-09-24T11:44:00.355Z,996.50
2018-09-24T11:45:00.322Z,996.55
2018-09-24T11:46:00.309Z,996.54
2018-09-24T11:47:00.333Z,996.47
2018-09-24T11:48:00.222Z,996.51
2018-09-24T11:49:00.223Z,996.45
2018-09-24T11:50:00.177Z,996.52
2018-09-24T11:51:00.140Z,996.45
2018-09-24T11:52:00.107Z,996.55
2018-09-24T11:53:00.064Z,996.47
2018-09-24T11:54:00.058Z,996.46
2018-09-24T11:55:00.000Z,996.38
2018-09-24T11:55:59.966Z,996.37
2018-09-24T11:56:59.924Z,996.41
2018-09-24T11:57:59.890Z,996.37
2018-09-24T11:58:59.867Z,996.41
2018-09-24T11:59:59.818Z,996.57
2018-09-24T12:00:59.787Z,996.54
2018-09-24T12:01:59.795Z,996.56
2018-09-24T12:02:59.717Z,996.54
2018-09-24T12:03:59.707Z,996.51
2018-09-24T12:04:59.655Z,996.54
2018-09-24T12:05:59.633Z,996.72
2018-09-24T12:06:59.585Z,996.76
2018-09-24T12:07:59.552Z,996.72
2018-09-24T12:08:59.519Z,996.72
2018-09-24T12:09:59.490Z,996.73
2018-09-24T12:10:59.463Z,996.74
2018-09-24T12:11:59.432Z,996.79
2018-09-24T12:12:59.395Z,996.79
2018-09-24T12:13:59.383Z,996.81
2018-09-24T12:14:59.355Z,996.83
2018-09-24T12:15:59.300Z,996.82
2018-09-24T12:16:59.254Z,996.80
2018-09-24T12:17:59.259Z,996.77
2018-09-24T12:18:59.182Z,996.63
2018-09-24T12:19:59.168Z,996.70
2018-09-24T12:20:59.123Z,996.67
2018-09-24T12:21:59.082Z,996.63
2018-09-24T12:22:59.052Z,996.62
2018-09-24T12:23:59.087Z,996.58
2018-09-24T12:24:58.987Z,996.62
2018-09-24T12:25:58.943Z,996.58
2018-09-24T12:26:58.908Z,996.56
2018-09-24T12:27:58.898Z,996.62